Terminal Aerodrome Forecast
Issued by NWS

Home | Current Version | Previous Version | Text Only | Print | Product List | Glossary On
Versions: 1 2 3 4 5 6 7 8 9 10 11 12 13 14 15 16 17 18
000
FTAK31 PAJN 021146
TAFASI
TAF
PASI 021146Z 0212/0312 18008KT 4SM -RA BR SCT015 OVC040
      TEMPO 0212/0215 18010G20KT 2SM RA BR BKN010 OVC020
     FM021500 22015G25KT 6SM -SHRA BR SCT010 OVC040
     FM021800 21010KT P6SM VCSH BKN040 OVC080
     FM022200 21006KT P6SM SCT025 BKN040 BKN060
     FM030300 VRB03KT P6SM BKN060=

USA.gov is the U.S. government's official web portal to all federal, state and local government web resources and services.